createdAt,value
2018-05-27T00:01:33.634Z,66.70
2018-05-27T00:04:03.389Z,67.10
2018-05-27T00:06:32.966Z,67.10
2018-05-27T00:09:02.689Z,67.10
2018-05-27T00:11:32.647Z,67.10
2018-05-27T00:14:03.339Z,67.20
2018-05-27T00:16:35.800Z,67.20
2018-05-27T00:19:05.829Z,67.20
2018-05-27T00:21:35.722Z,67.20
2018-05-27T00:24:05.853Z,67.20
2018-05-27T00:26:35.343Z,67.20
2018-05-27T00:29:05.697Z,67.30
2018-05-27T00:31:35.249Z,67.10
2018-05-27T00:34:04.653Z,67.20
2018-05-27T00:36:34.834Z,67.20
2018-05-27T00:39:04.706Z,67.20
2018-05-27T00:41:33.933Z,66.80
2018-05-27T00:44:02.778Z,68.20
2018-05-27T00:46:32.176Z,67.20
2018-05-27T00:49:03.011Z,67.20
2018-05-27T00:51:32.832Z,67.20
2018-05-27T00:54:03.610Z,67.20
2018-05-27T00:56:33.300Z,67.20
2018-05-27T00:59:02.931Z,67.20
2018-05-27T01:01:32.664Z,67.20
2018-05-27T01:04:02.484Z,67.20
2018-05-27T01:06:31.999Z,67.20
2018-05-27T01:09:03.249Z,67.20
2018-05-27T01:11:33.357Z,67.30
2018-05-27T01:14:03.500Z,67.20
2018-05-27T01:16:33.929Z,67.30
2018-05-27T01:19:03.743Z,67.30
2018-05-27T01:21:33.646Z,67.30
2018-05-27T01:24:04.317Z,67.20
2018-05-27T01:26:33.855Z,67.30
2018-05-27T01:29:11.361Z,67.30
2018-05-27T01:31:40.794Z,66.90
2018-05-27T01:36:42.843Z,67.30
2018-05-27T01:39:16.636Z,67.30
2018-05-27T01:41:46.484Z,66.90
2018-05-27T01:44:15.772Z,67.30
2018-05-27T01:46:45.279Z,67.30
2018-05-27T01:49:14.733Z,66.90
2018-05-27T01:51:44.505Z,67.30
2018-05-27T01:54:15.465Z,67.00
2018-05-27T01:56:46.203Z,67.40
2018-05-27T01:59:15.621Z,67.30
2018-05-27T02:01:44.971Z,67.40
2018-05-27T02:04:15.288Z,67.30
2018-05-27T02:06:44.810Z,66.90
2018-05-27T02:09:14.440Z,68.10
2018-05-27T02:11:45.357Z,67.40
2018-05-27T02:14:14.832Z,67.30
2018-05-27T02:16:45.505Z,67.40
2018-05-27T02:19:14.773Z,66.90
2018-05-27T02:23:03.321Z,67.30
2018-05-27T02:25:32.693Z,67.30
2018-05-27T02:28:03.933Z,67.40
2018-05-27T02:30:33.719Z,67.40
2018-05-27T02:33:03.390Z,67.40
2018-05-27T02:35:32.722Z,67.00
2018-05-27T02:38:02.755Z,67.40
2018-05-27T02:40:32.011Z,67.00
2018-05-27T02:43:02.987Z,67.10
2018-05-27T02:45:33.287Z,67.50
2018-05-27T02:48:03.275Z,67.00
2018-05-27T02:50:32.980Z,67.40
2018-05-27T02:53:03.262Z,67.50
2018-05-27T02:55:32.772Z,67.40
2018-05-27T02:58:03.404Z,67.20
2018-05-27T03:00:32.978Z,67.40
2018-05-27T03:03:02.845Z,67.40
2018-05-27T03:05:33.185Z,67.20
2018-05-27T03:08:06.723Z,68.30
2018-05-27T03:10:36.244Z,67.50
2018-05-27T03:13:05.677Z,67.00
2018-05-27T03:15:34.953Z,67.50
2018-05-27T03:18:04.699Z,67.50
2018-05-27T03:20:34.377Z,67.50
2018-05-27T03:23:04.189Z,67.10
2018-05-27T03:25:33.813Z,67.40
2018-05-27T03:28:03.620Z,67.50
2018-05-27T03:30:32.975Z,67.10
2018-05-27T03:34:14.715Z,67.40
2018-05-27T03:36:45.330Z,67.50
2018-05-27T03:39:15.256Z,67.60
2018-05-27T03:41:44.759Z,67.50
2018-05-27T03:44:13.972Z,67.50
2018-05-27T03:46:43.446Z,67.10
2018-05-27T03:49:12.775Z,67.50
2018-05-27T03:51:41.847Z,67.50
2018-05-27T03:54:11.312Z,67.00
2018-05-27T03:56:41.335Z,67.50
2018-05-27T03:59:11.496Z,67.40
2018-05-27T04:01:40.776Z,67.30
2018-05-27T04:10:30.440Z,67.30
2018-05-27T04:12:59.873Z,68.20
2018-05-27T04:15:30.392Z,66.90
2018-05-27T04:17:59.889Z,67.50
2018-05-27T04:20:28.571Z,67.50
2018-05-27T04:22:57.767Z,67.70
2018-05-27T04:25:27.870Z,67.40
2018-05-27T04:27:57.225Z,67.40
2018-05-27T04:30:27.400Z,67.50
2018-05-27T04:32:56.736Z,67.50
2018-05-27T04:35:26.825Z,67.40
2018-05-27T04:40:28.202Z,67.50
2018-05-27T04:42:58.536Z,67.50
2018-05-27T04:45:29.524Z,67.50
2018-05-27T04:47:58.838Z,67.10
2018-05-27T04:50:28.267Z,67.40
2018-05-27T04:52:57.752Z,67.00
2018-05-27T04:55:27.203Z,67.40
2018-05-27T04:57:57.376Z,67.40
2018-05-27T05:00:26.808Z,67.40
2018-05-27T05:02:55.955Z,67.40
2018-05-27T05:05:25.328Z,67.00
2018-05-27T05:07:56.461Z,68.20
2018-05-27T05:12:18.779Z,67.30
2018-05-27T05:14:47.972Z,67.30
2018-05-27T05:17:17.293Z,66.90
2018-05-27T05:19:46.659Z,66.90
2018-05-27T05:22:16.353Z,67.30
2018-05-27T05:24:45.852Z,67.30
2018-05-27T05:27:17.715Z,67.00
2018-05-27T05:29:47.731Z,67.40
2018-05-27T05:32:17.818Z,67.30
2018-05-27T05:34:47.668Z,67.40
2018-05-27T05:37:17.693Z,67.40
2018-05-27T05:39:47.261Z,67.40
2018-05-27T05:42:16.703Z,67.40
2018-05-27T05:44:46.705Z,67.40
2018-05-27T05:47:16.798Z,68.20
2018-05-27T05:49:46.269Z,67.40
2018-05-27T05:52:15.529Z,67.00
2018-05-27T05:54:44.780Z,67.40
2018-05-27T05:57:13.992Z,67.50
2018-05-27T05:59:43.977Z,67.50
2018-05-27T06:02:13.446Z,66.90
2018-05-27T06:04:42.856Z,67.40
2018-05-27T06:07:12.712Z,67.10
2018-05-27T06:09:42.292Z,67.40
2018-05-27T06:12:12.661Z,67.10
2018-05-27T06:14:48.188Z,67.40
2018-05-27T06:17:19.670Z,67.40
2018-05-27T06:19:48.868Z,67.40
2018-05-27T06:22:18.999Z,67.40
2018-05-27T06:24:50.394Z,67.50
2018-05-27T06:27:20.304Z,67.50
2018-05-27T06:29:51.282Z,67.50
2018-05-27T06:32:21.710Z,67.40
2018-05-27T06:34:52.665Z,67.40
2018-05-27T06:37:22.983Z,67.70
2018-05-27T06:39:53.846Z,67.50
2018-05-27T06:42:23.422Z,67.50
2018-05-27T06:44:52.765Z,67.50
2018-05-27T06:47:23.521Z,66.90
2018-05-27T06:49:53.714Z,67.40
2018-05-27T06:52:23.206Z,67.40
2018-05-27T06:54:53.660Z,67.50
2018-05-27T06:57:24.993Z,68.60
2018-05-27T06:59:55.457Z,68.00
2018-05-27T07:02:26.379Z,68.20
2018-05-27T07:04:57.319Z,68.90
2018-05-27T07:07:27.960Z,68.80
2018-05-27T07:10:00.257Z,70.10
2018-05-27T07:12:35.375Z,70.40
2018-05-27T07:15:08.290Z,71.40
2018-05-27T07:17:39.786Z,71.40
2018-05-27T07:20:10.300Z,72.30
2018-05-27T07:22:40.238Z,72.00
2018-05-27T07:25:11.274Z,72.90
2018-05-27T07:27:40.630Z,72.90
2018-05-27T07:30:14.797Z,73.20
2018-05-27T07:32:53.274Z,73.90
2018-05-27T07:45:39.563Z,77.00
2018-05-27T07:48:08.838Z,77.00
2018-05-27T07:50:38.478Z,76.70
2018-05-27T07:53:09.223Z,75.60
2018-05-27T07:55:39.526Z,75.70
2018-05-27T07:58:10.817Z,75.70
2018-05-27T08:00:40.178Z,75.70
2018-05-27T08:03:10.377Z,76.00
2018-05-27T08:05:40.404Z,76.00
2018-05-27T08:08:09.701Z,76.70
2018-05-27T08:10:38.856Z,76.80
2018-05-27T08:13:09.261Z,76.20
2018-05-27T08:15:39.887Z,76.50
2018-05-27T08:18:09.462Z,76.40
2018-05-27T08:20:39.492Z,76.70
2018-05-27T08:23:09.295Z,76.20
2018-05-27T08:25:39.287Z,76.30
2018-05-27T08:28:09.252Z,76.50
2018-05-27T08:30:39.343Z,76.00
2018-05-27T08:33:08.760Z,75.30
2018-05-27T08:35:37.893Z,74.70
2018-05-27T08:38:07.211Z,73.50
2018-05-27T08:40:36.854Z,72.70
2018-05-27T08:43:06.413Z,72.50
2018-05-27T08:45:36.802Z,72.20
2018-05-27T08:48:06.566Z,72.00
2018-05-27T08:50:37.071Z,71.70
2018-05-27T08:53:06.765Z,71.70
2018-05-27T08:55:35.858Z,71.30
2018-05-27T08:58:05.233Z,70.80
2018-05-27T09:00:34.681Z,71.10
2018-05-27T09:03:04.710Z,71.60
2018-05-27T09:05:34.224Z,70.90
2018-05-27T09:08:03.618Z,71.20
2018-05-27T09:10:33.175Z,71.20
2018-05-27T09:13:03.784Z,70.40
2018-05-27T09:15:33.454Z,70.40
2018-05-27T09:18:03.387Z,69.70
2018-05-27T09:20:32.813Z,70.00
2018-05-27T09:23:02.465Z,69.80
2018-05-27T09:25:31.881Z,69.20
2018-05-27T09:28:01.616Z,69.70
2018-05-27T09:30:31.409Z,69.50
2018-05-27T09:33:01.408Z,70.70
2018-05-27T09:35:30.773Z,70.00
2018-05-27T09:38:01.612Z,70.30
2018-05-27T09:40:30.968Z,70.20
2018-05-27T09:43:00.920Z,70.50
2018-05-27T09:45:32.666Z,70.40
2018-05-27T09:48:02.347Z,70.20
2018-05-27T09:50:31.720Z,70.40
2018-05-27T09:53:01.500Z,70.40
2018-05-27T09:55:31.704Z,70.50
2018-05-27T09:58:01.613Z,70.40
2018-05-27T10:00:31.607Z,71.20
2018-05-27T10:03:01.528Z,70.40
2018-05-27T10:05:30.822Z,70.40
2018-05-27T10:08:14.719Z,70.40
2018-05-27T10:10:43.950Z,70.00
2018-05-27T10:13:13.424Z,69.60
2018-05-27T10:15:43.974Z,69.40
2018-05-27T10:18:13.835Z,69.40
2018-05-27T10:20:43.094Z,69.40
2018-05-27T10:23:12.642Z,69.00
2018-05-27T10:25:42.652Z,69.20
2018-05-27T10:28:12.457Z,69.20
2018-05-27T10:30:41.874Z,69.00
2018-05-27T10:33:11.694Z,68.90
2018-05-27T10:35:42.448Z,69.10
2018-05-27T10:38:13.511Z,69.50
2018-05-27T10:40:42.996Z,69.40
2018-05-27T10:43:12.785Z,69.80
2018-05-27T10:45:42.422Z,70.20
2018-05-27T10:48:13.478Z,71.00
2018-05-27T10:50:43.854Z,71.50
2018-05-27T10:53:13.577Z,71.40
2018-05-27T10:55:42.802Z,72.20
2018-05-27T10:58:13.027Z,73.20
2018-05-27T11:00:42.747Z,73.30
2018-05-27T11:03:12.433Z,73.50
2018-05-27T11:05:41.991Z,73.10
2018-05-27T11:08:12.420Z,73.60
2018-05-27T11:10:42.422Z,73.30
2018-05-27T11:13:13.514Z,72.40
2018-05-27T11:15:54.276Z,72.30
2018-05-27T11:18:24.429Z,72.20
2018-05-27T11:20:54.801Z,71.90
2018-05-27T11:23:24.420Z,71.90
2018-05-27T11:25:54.019Z,71.20
2018-05-27T11:28:23.814Z,71.40
2018-05-27T11:30:53.440Z,71.40
2018-05-27T11:33:22.865Z,70.90
2018-05-27T11:35:52.429Z,71.10
2018-05-27T11:38:22.808Z,71.10
2018-05-27T11:40:52.447Z,71.10
2018-05-27T11:43:22.723Z,71.80
2018-05-27T11:45:52.386Z,71.00
2018-05-27T11:48:22.844Z,70.80
2018-05-27T11:50:52.662Z,70.70
2018-05-27T11:53:22.425Z,70.40
2018-05-27T11:55:53.352Z,70.70
2018-05-27T11:58:23.769Z,70.60
2018-05-27T12:00:53.450Z,70.60
2018-05-27T12:03:24.634Z,70.20
2018-05-27T12:05:54.488Z,70.50
2018-05-27T12:08:23.935Z,70.30
2018-05-27T12:10:52.873Z,70.40
2018-05-27T12:13:23.681Z,70.20
2018-05-27T12:15:54.480Z,70.50
2018-05-27T12:18:23.960Z,70.50
2018-05-27T12:20:52.761Z,71.30
2018-05-27T12:23:21.939Z,69.90
2018-05-27T12:25:50.891Z,69.80
2018-05-27T12:28:19.788Z,69.70
2018-05-27T12:30:50.443Z,69.10
2018-05-27T12:33:20.801Z,69.70
2018-05-27T12:35:50.438Z,68.70
2018-05-27T12:38:20.404Z,67.90
2018-05-27T12:40:51.436Z,67.20
2018-05-27T12:43:22.346Z,66.90
2018-05-27T12:45:51.852Z,66.90
2018-05-27T12:48:21.595Z,66.70
2018-05-27T12:50:52.428Z,66.50
2018-05-27T12:53:22.736Z,66.70
2018-05-27T12:55:52.448Z,66.60
2018-05-27T12:58:21.841Z,66.60
2018-05-27T13:00:51.524Z,66.60
2018-05-27T13:03:21.432Z,65.00
2018-05-27T13:05:51.873Z,63.50
2018-05-27T13:08:21.708Z,63.50
2018-05-27T13:10:51.469Z,63.70
2018-05-27T13:13:32.822Z,65.50
2018-05-27T13:16:15.769Z,66.00
2018-05-27T13:21:10.051Z,67.00
2018-05-27T13:26:10.978Z,66.40
2018-05-27T13:28:40.452Z,66.40
2018-05-27T13:31:10.380Z,65.70
2018-05-27T13:33:40.845Z,65.30
2018-05-27T13:36:10.397Z,65.20
2018-05-27T13:38:39.876Z,64.80
2018-05-27T13:41:10.576Z,64.20
2018-05-27T13:43:40.594Z,64.70
2018-05-27T13:46:09.952Z,64.50
2018-05-27T13:48:38.862Z,64.30
2018-05-27T13:51:08.627Z,63.60
2018-05-27T13:53:38.965Z,63.50
2018-05-27T13:56:09.019Z,64.00
2018-05-27T13:58:38.824Z,64.00
2018-05-27T14:01:09.430Z,64.00
2018-05-27T14:03:39.795Z,63.90
2018-05-27T14:06:12.943Z,63.60
2018-05-27T14:08:41.623Z,63.70
2018-05-27T14:11:11.893Z,65.10
2018-05-27T14:13:40.750Z,64.10
2018-05-27T14:16:12.061Z,64.10
2018-05-27T14:18:41.876Z,64.20
2018-05-27T14:21:11.564Z,64.20
2018-05-27T14:23:41.426Z,63.80
2018-05-27T14:26:11.994Z,64.30
2018-05-27T14:28:40.894Z,64.20
